sensor_id;sensor_type;location;lat;lon;timestamp;pressure;altitude;pressure_sealevel;temperature;humidity
20023;BME280;10172;42.054;24.546;2023-03-31T00:00:42;98187.00;;;10.79;63.14
20023;BME280;10172;42.054;24.546;2023-03-31T00:03:08;98181.59;;;10.43;65.91
20023;BME280;10172;42.054;24.546;2023-03-31T00:05:47;98183.59;;;11.03;63.68
20023;BME280;10172;42.054;24.546;2023-03-31T00:08:13;98178.88;;;11.19;61.29
20023;BME280;10172;42.054;24.546;2023-03-31T00:10:43;98176.25;;;11.90;60.14
20023;BME280;10172;42.054;24.546;2023-03-31T00:13:10;98184.84;;;11.10;61.24
20023;BME280;10172;42.054;24.546;2023-03-31T00:15:35;98192.34;;;8.66;74.02
20023;BME280;10172;42.054;24.546;2023-03-31T00:18:01;98194.50;;;9.30;74.48
20023;BME280;10172;42.054;24.546;2023-03-31T00:20:27;98185.13;;;9.78;71.57
20023;BME280;10172;42.054;24.546;2023-03-31T00:22:53;98182.75;;;9.20;73.14
20023;BME280;10172;42.054;24.546;2023-03-31T00:25:19;98179.28;;;9.05;76.09
20023;BME280;10172;42.054;24.546;2023-03-31T00:27:45;98183.72;;;8.76;77.43
20023;BME280;10172;42.054;24.546;2023-03-31T00:30:12;98191.19;;;9.12;77.94
20023;BME280;10172;42.054;24.546;2023-03-31T00:32:38;98176.16;;;8.12;85.17
20023;BME280;10172;42.054;24.546;2023-03-31T00:35:04;98166.59;;;8.39;81.61
20023;BME280;10172;42.054;24.546;2023-03-31T00:37:30;98182.50;;;8.82;79.00
20023;BME280;10172;42.054;24.546;2023-03-31T00:39:57;98169.03;;;8.99;77.18
20023;BME280;10172;42.054;24.546;2023-03-31T00:42:24;98172.66;;;7.82;85.96
20023;BME280;10172;42.054;24.546;2023-03-31T00:47:47;98168.16;;;7.23;92.70
20023;BME280;10172;42.054;24.546;2023-03-31T00:50:17;98169.00;;;7.39;93.99
20023;BME280;10172;42.054;24.546;2023-03-31T00:52:47;98166.28;;;8.00;88.96
20023;BME280;10172;42.054;24.546;2023-03-31T00:55:17;98160.44;;;8.09;86.97
20023;BME280;10172;42.054;24.546;2023-03-31T00:57:45;98163.31;;;8.20;85.65
20023;BME280;10172;42.054;24.546;2023-03-31T01:00:13;98161.19;;;8.55;83.60
20023;BME280;10172;42.054;24.546;2023-03-31T01:02:47;98163.34;;;7.45;90.25
20023;BME280;10172;42.054;24.546;2023-03-31T01:05:44;98159.75;;;7.62;92.18
20023;BME280;10172;42.054;24.546;2023-03-31T01:08:13;98156.69;;;7.38;91.46
20023;BME280;10172;42.054;24.546;2023-03-31T01:10:50;98160.22;;;7.68;90.05
20023;BME280;10172;42.054;24.546;2023-03-31T01:13:17;98159.09;;;7.43;90.61
20023;BME280;10172;42.054;24.546;2023-03-31T01:15:44;98150.88;;;6.69;92.74
20023;BME280;10172;42.054;24.546;2023-03-31T01:18:10;98152.66;;;6.53;98.01
20023;BME280;10172;42.054;24.546;2023-03-31T01:42:14;98127.88;;;6.06;100.00
20023;BME280;10172;42.054;24.546;2023-03-31T01:44:45;98128.66;;;6.08;100.00
20023;BME280;10172;42.054;24.546;2023-03-31T01:47:38;98114.72;;;5.88;100.00
20023;BME280;10172;42.054;24.546;2023-03-31T01:50:28;98138.16;;;6.60;98.36
20023;BME280;10172;42.054;24.546;2023-03-31T01:53:15;98131.06;;;6.45;98.98
20023;BME280;10172;42.054;24.546;2023-03-31T01:56:03;98128.81;;;6.05;100.00
20023;BME280;10172;42.054;24.546;2023-03-31T01:58:36;98126.50;;;5.98;100.00
20023;BME280;10172;42.054;24.546;2023-03-31T02:03:57;98114.56;;;5.91;100.00
20023;BME280;10172;42.054;24.546;2023-03-31T02:06:29;98111.41;;;6.00;100.00
20023;BME280;10172;42.054;24.546;2023-03-31T02:09:07;98117.63;;;5.82;100.00
20023;BME280;10172;42.054;24.546;2023-03-31T02:11:33;98109.09;;;6.27;99.47
20023;BME280;10172;42.054;24.546;2023-03-31T02:14:00;98120.97;;;6.36;98.11
20023;BME280;10172;42.054;24.546;2023-03-31T02:16:31;98111.22;;;6.38;98.26
20023;BME280;10172;42.054;24.546;2023-03-31T02:19:02;98111.81;;;6.58;96.95
20023;BME280;10172;42.054;24.546;2023-03-31T02:21:36;98118.25;;;6.70;95.04
20023;BME280;10172;42.054;24.546;2023-03-31T02:24:06;98118.28;;;6.37;96.83
20023;BME280;10172;42.054;24.546;2023-03-31T02:26:38;98113.94;;;6.19;98.18
20023;BME280;10172;42.054;24.546;2023-03-31T02:29:04;98115.91;;;6.16;99.19
20023;BME280;10172;42.054;24.546;2023-03-31T02:31:43;98113.91;;;6.03;100.00
20023;BME280;10172;42.054;24.546;2023-03-31T02:34:12;98114.06;;;5.66;100.00
20023;BME280;10172;42.054;24.546;2023-03-31T02:36:39;98122.25;;;5.26;100.00
20023;BME280;10172;42.054;24.546;2023-03-31T02:39:08;98113.69;;;5.57;100.00
20023;BME280;10172;42.054;24.546;2023-03-31T02:41:36;98122.13;;;5.80;100.00
20023;BME280;10172;42.054;24.546;2023-03-31T02:44:01;98124.72;;;5.99;100.00
20023;BME280;10172;42.054;24.546;2023-03-31T02:46:27;98113.03;;;6.03;98.94
20023;BME280;10172;42.054;24.546;2023-03-31T02:48:55;98117.63;;;5.82;98.45
20023;BME280;10172;42.054;24.546;2023-03-31T02:54:38;98129.91;;;6.00;100.00
20023;BME280;10172;42.054;24.546;2023-03-31T02:59:56;98128.19;;;5.82;100.00
20023;BME280;10172;42.054;24.546;2023-03-31T03:13:58;98138.28;;;5.74;100.00
20023;BME280;10172;42.054;24.546;2023-03-31T03:16:28;98143.25;;;5.80;100.00
20023;BME280;10172;42.054;24.546;2023-03-31T03:18:59;98154.72;;;6.31;100.00
20023;BME280;10172;42.054;24.546;2023-03-31T03:21:25;98149.56;;;6.12;100.00
20023;BME280;10172;42.054;24.546;2023-03-31T03:23:51;98142.34;;;5.98;100.00
20023;BME280;10172;42.054;24.546;2023-03-31T03:26:18;98156.13;;;5.69;100.00
20023;BME280;10172;42.054;24.546;2023-03-31T03:28:46;98146.00;;;6.46;100.00
20023;BME280;10172;42.054;24.546;2023-03-31T03:31:12;98158.06;;;6.67;100.00
20023;BME280;10172;42.054;24.546;2023-03-31T03:33:38;98145.44;;;7.35;96.17
20023;BME280;10172;42.054;24.546;2023-03-31T03:36:03;98148.09;;;7.35;92.57
20023;BME280;10172;42.054;24.546;2023-03-31T03:38:29;98145.50;;;7.49;90.63
20023;BME280;10172;42.054;24.546;2023-03-31T03:40:55;98147.72;;;7.41;91.14
20023;BME280;10172;42.054;24.546;2023-03-31T03:43:20;98144.72;;;6.53;99.86
20023;BME280;10172;42.054;24.546;2023-03-31T03:45:49;98158.25;;;6.95;94.63
20023;BME280;10172;42.054;24.546;2023-03-31T03:48:16;98164.81;;;6.40;100.00
20023;BME280;10172;42.054;24.546;2023-03-31T03:50:41;98155.53;;;6.81;97.99
20023;BME280;10172;42.054;24.546;2023-03-31T03:53:07;98153.63;;;7.14;91.32
20023;BME280;10172;42.054;24.546;2023-03-31T03:55:32;98160.91;;;7.72;88.28
20023;BME280;10172;42.054;24.546;2023-03-31T03:57:58;98158.13;;;7.89;85.61
20023;BME280;10172;42.054;24.546;2023-03-31T04:00:24;98155.66;;;7.86;83.03
20023;BME280;10172;42.054;24.546;2023-03-31T04:02:49;98149.22;;;6.99;96.38
20023;BME280;10172;42.054;24.546;2023-03-31T04:05:15;98129.59;;;6.88;97.34
20023;BME280;10172;42.054;24.546;2023-03-31T04:07:40;98129.53;;;7.50;93.14
20023;BME280;10172;42.054;24.546;2023-03-31T04:10:07;98128.84;;;8.06;82.04
20023;BME280;10172;42.054;24.546;2023-03-31T04:12:34;98125.38;;;6.68;95.80
20023;BME280;10172;42.054;24.546;2023-03-31T04:15:00;98114.69;;;6.38;99.63
20023;BME280;10172;42.054;24.546;2023-03-31T04:17:25;98111.13;;;6.71;96.17
20023;BME280;10172;42.054;24.546;2023-03-31T04:20:02;98118.63;;;7.25;92.56
20023;BME280;10172;42.054;24.546;2023-03-31T04:22:32;98111.59;;;8.29;83.90
20023;BME280;10172;42.054;24.546;2023-03-31T04:25:05;98111.31;;;8.62;79.26
20023;BME280;10172;42.054;24.546;2023-03-31T04:27:40;98121.94;;;9.02;80.34
20023;BME280;10172;42.054;24.546;2023-03-31T04:30:12;98121.88;;;9.17;77.70
20023;BME280;10172;42.054;24.546;2023-03-31T04:32:37;98116.31;;;9.21;77.92
20023;BME280;10172;42.054;24.546;2023-03-31T04:35:03;98120.38;;;8.72;78.09
20023;BME280;10172;42.054;24.546;2023-03-31T04:37:29;98120.06;;;9.31;75.36
20023;BME280;10172;42.054;24.546;2023-03-31T04:39:59;98127.28;;;8.74;81.46
20023;BME280;10172;42.054;24.546;2023-03-31T04:42:29;98131.34;;;8.52;84.25
20023;BME280;10172;42.054;24.546;2023-03-31T04:44:54;98115.69;;;8.05;90.97
20023;BME280;10172;42.054;24.546;2023-03-31T04:47:20;98131.66;;;8.47;87.34
20023;BME280;10172;42.054;24.546;2023-03-31T04:49:45;98136.13;;;8.32;91.42
20023;BME280;10172;42.054;24.546;2023-03-31T04:52:11;98112.91;;;8.50;90.62
20023;BME280;10172;42.054;24.546;2023-03-31T04:54:36;98108.28;;;8.54;86.64
20023;BME280;10172;42.054;24.546;2023-03-31T04:57:02;98110.06;;;7.81;97.19
20023;BME280;10172;42.054;24.546;2023-03-31T04:59:27;98086.78;;;7.72;97.81
20023;BME280;10172;42.054;24.546;2023-03-31T05:01:53;98099.97;;;8.02;95.52
20023;BME280;10172;42.054;24.546;2023-03-31T05:04:18;98085.53;;;8.50;91.06
20023;BME280;10172;42.054;24.546;2023-03-31T05:06:43;98088.00;;;8.38;90.03
20023;BME280;10172;42.054;24.546;2023-03-31T05:09:09;98063.44;;;9.18;85.49
20023;BME280;10172;42.054;24.546;2023-03-31T05:11:34;98060.50;;;9.35;83.49
20023;BME280;10172;42.054;24.546;2023-03-31T05:14:00;98061.28;;;9.11;81.44
20023;BME280;10172;42.054;24.546;2023-03-31T05:16:26;98057.41;;;9.02;84.67
20023;BME280;10172;42.054;24.546;2023-03-31T05:18:51;98063.00;;;8.97;88.21
20023;BME280;10172;42.054;24.546;2023-03-31T05:21:19;98060.00;;;8.34;93.91
20023;BME280;10172;42.054;24.546;2023-03-31T05:23:46;98054.75;;;9.02;90.08
20023;BME280;10172;42.054;24.546;2023-03-31T05:26:13;98060.22;;;9.52;79.46
20023;BME280;10172;42.054;24.546;2023-03-31T05:28:38;98062.13;;;10.28;74.87
20023;BME280;10172;42.054;24.546;2023-03-31T05:31:05;98055.00;;;10.90;71.03
20023;BME280;10172;42.054;24.546;2023-03-31T05:33:31;98056.03;;;11.00;69.26
20023;BME280;10172;42.054;24.546;2023-03-31T05:35:57;98056.84;;;11.13;67.77
20023;BME280;10172;42.054;24.546;2023-03-31T05:38:25;98049.53;;;11.27;67.11
20023;BME280;10172;42.054;24.546;2023-03-31T05:40:54;98034.75;;;11.00;65.08
20023;BME280;10172;42.054;24.546;2023-03-31T05:43:20;98029.78;;;11.19;64.46
20023;BME280;10172;42.054;24.546;2023-03-31T05:45:45;98032.56;;;10.07;75.45
20023;BME280;10172;42.054;24.546;2023-03-31T05:48:11;98037.22;;;10.41;73.43
20023;BME280;10172;42.054;24.546;2023-03-31T05:50:36;98012.44;;;9.65;78.04
20023;BME280;10172;42.054;24.546;2023-03-31T05:53:01;98018.22;;;10.22;74.27
20023;BME280;10172;42.054;24.546;2023-03-31T05:55:27;98012.16;;;11.05;70.41
20023;BME280;10172;42.054;24.546;2023-03-31T05:57:52;98025.09;;;10.12;77.19
20023;BME280;10172;42.054;24.546;2023-03-31T06:00:19;98019.66;;;10.88;74.29
20023;BME280;10172;42.054;24.546;2023-03-31T06:02:44;98032.72;;;11.27;70.82
20023;BME280;10172;42.054;24.546;2023-03-31T06:05:11;98021.03;;;11.17;69.21
20023;BME280;10172;42.054;24.546;2023-03-31T06:07:36;98021.38;;;10.89;68.79
20023;BME280;10172;42.054;24.546;2023-03-31T06:10:02;98021.88;;;11.17;67.74
20023;BME280;10172;42.054;24.546;2023-03-31T06:12:28;98032.09;;;11.58;69.25
20023;BME280;10172;42.054;24.546;2023-03-31T06:14:53;98028.56;;;11.81;68.29
20023;BME280;10172;42.054;24.546;2023-03-31T06:17:18;98031.88;;;10.66;75.55
20023;BME280;10172;42.054;24.546;2023-03-31T06:19:44;98037.22;;;10.90;75.19
20023;BME280;10172;42.054;24.546;2023-03-31T06:22:10;98024.91;;;11.13;72.11
20023;BME280;10172;42.054;24.546;2023-03-31T06:24:35;98031.88;;;10.66;76.79
20023;BME280;10172;42.054;24.546;2023-03-31T06:27:00;98026.66;;;10.65;78.67
20023;BME280;10172;42.054;24.546;2023-03-31T06:29:28;98018.06;;;10.61;77.52
20023;BME280;10172;42.054;24.546;2023-03-31T06:31:53;98013.97;;;10.68;75.27
20023;BME280;10172;42.054;24.546;2023-03-31T06:34:20;98010.06;;;11.56;71.13
20023;BME280;10172;42.054;24.546;2023-03-31T06:36:45;98014.56;;;12.13;67.09
20023;BME280;10172;42.054;24.546;2023-03-31T06:39:11;98005.84;;;12.33;65.42
20023;BME280;10172;42.054;24.546;2023-03-31T06:41:37;97998.38;;;12.92;62.99
20023;BME280;10172;42.054;24.546;2023-03-31T06:44:03;97996.28;;;13.17;62.34
20023;BME280;10172;42.054;24.546;2023-03-31T06:46:29;97988.69;;;13.34;63.50
20023;BME280;10172;42.054;24.546;2023-03-31T06:48:54;97996.78;;;13.64;63.76
20023;BME280;10172;42.054;24.546;2023-03-31T06:51:20;97992.75;;;13.49;63.53
20023;BME280;10172;42.054;24.546;2023-03-31T06:53:45;97979.50;;;13.68;60.77
20023;BME280;10172;42.054;24.546;2023-03-31T06:56:11;97973.56;;;13.85;58.47
20023;BME280;10172;42.054;24.546;2023-03-31T06:58:36;97981.13;;;14.01;58.30
20023;BME280;10172;42.054;24.546;2023-03-31T07:01:04;97979.09;;;14.34;56.22
20023;BME280;10172;42.054;24.546;2023-03-31T07:03:30;97976.00;;;13.88;56.42
20023;BME280;10172;42.054;24.546;2023-03-31T07:05:56;97978.78;;;14.07;56.72
20023;BME280;10172;42.054;24.546;2023-03-31T07:08:23;97974.59;;;14.35;56.24
20023;BME280;10172;42.054;24.546;2023-03-31T07:10:53;97998.59;;;14.56;54.98
20023;BME280;10172;42.054;24.546;2023-03-31T07:13:19;97989.53;;;14.87;54.46
20023;BME280;10172;42.054;24.546;2023-03-31T07:15:49;97987.63;;;15.27;53.41
20023;BME280;10172;42.054;24.546;2023-03-31T07:18:15;97981.66;;;14.95;53.44
20023;BME280;10172;42.054;24.546;2023-03-31T07:20:42;97981.31;;;15.47;54.06
20023;BME280;10172;42.054;24.546;2023-03-31T07:23:07;97978.22;;;15.62;53.53
20023;BME280;10172;42.054;24.546;2023-03-31T07:25:34;97980.69;;;16.01;52.78
20023;BME280;10172;42.054;24.546;2023-03-31T07:28:00;97982.66;;;15.99;50.58
20023;BME280;10172;42.054;24.546;2023-03-31T07:30:26;97978.78;;;15.55;52.81
20023;BME280;10172;42.054;24.546;2023-03-31T07:32:52;97982.09;;;15.96;51.16
20023;BME280;10172;42.054;24.546;2023-03-31T07:35:19;97988.22;;;16.35;50.25
20023;BME280;10172;42.054;24.546;2023-03-31T07:37:47;97989.81;;;16.18;51.86
20023;BME280;10172;42.054;24.546;2023-03-31T07:40:22;97979.72;;;16.39;52.91
20023;BME280;10172;42.054;24.546;2023-03-31T07:42:48;97991.50;;;16.65;52.17
20023;BME280;10172;42.054;24.546;2023-03-31T07:45:17;97998.97;;;16.71;51.37
20023;BME280;10172;42.054;24.546;2023-03-31T07:47:43;97993.47;;;16.63;50.44
20023;BME280;10172;42.054;24.546;2023-03-31T07:50:10;97974.25;;;17.13;49.16
20023;BME280;10172;42.054;24.546;2023-03-31T07:52:36;97990.72;;;17.45;48.86
20023;BME280;10172;42.054;24.546;2023-03-31T07:55:02;97991.72;;;17.79;48.71
20023;BME280;10172;42.054;24.546;2023-03-31T07:57:28;97991.56;;;17.81;47.26
20023;BME280;10172;42.054;24.546;2023-03-31T07:59:53;97976.13;;;18.09;46.15
20023;BME280;10172;42.054;24.546;2023-03-31T08:02:19;97993.03;;;17.75;44.96
20023;BME280;10172;42.054;24.546;2023-03-31T08:04:45;97996.44;;;16.24;46.50
20023;BME280;10172;42.054;24.546;2023-03-31T08:07:12;97980.38;;;16.51;46.79
20023;BME280;10172;42.054;24.546;2023-03-31T08:09:39;97988.91;;;16.73;46.49
20023;BME280;10172;42.054;24.546;2023-03-31T08:12:05;97971.56;;;17.13;45.67
20023;BME280;10172;42.054;24.546;2023-03-31T08:14:31;97966.03;;;17.50;43.60
20023;BME280;10172;42.054;24.546;2023-03-31T08:16:56;97961.19;;;17.71;43.76
20023;BME280;10172;42.054;24.546;2023-03-31T08:19:24;97943.78;;;17.22;43.00
20023;BME280;10172;42.054;24.546;2023-03-31T08:21:50;97945.72;;;15.84;45.79
20023;BME280;10172;42.054;24.546;2023-03-31T08:24:17;97924.72;;;17.15;44.25
20023;BME280;10172;42.054;24.546;2023-03-31T08:26:43;97921.19;;;18.19;44.00
20023;BME280;10172;42.054;24.546;2023-03-31T08:29:08;97920.59;;;18.67;41.21
20023;BME280;10172;42.054;24.546;2023-03-31T08:31:34;97930.34;;;19.34;41.48
20023;BME280;10172;42.054;24.546;2023-03-31T08:33:59;97920.59;;;19.41;39.66
20023;BME280;10172;42.054;24.546;2023-03-31T08:36:27;97920.22;;;19.36;40.23
20023;BME280;10172;42.054;24.546;2023-03-31T08:38:54;97907.91;;;17.92;42.24
20023;BME280;10172;42.054;24.546;2023-03-31T08:41:49;97913.53;;;18.32;42.42
20023;BME280;10172;42.054;24.546;2023-03-31T08:47:12;97890.53;;;19.12;41.14
20023;BME280;10172;42.054;24.546;2023-03-31T08:49:44;97875.47;;;18.69;42.16
20023;BME280;10172;42.054;24.546;2023-03-31T08:52:23;97871.25;;;17.48;43.80
20023;BME280;10172;42.054;24.546;2023-03-31T08:54:56;97877.88;;;17.18;43.79
20023;BME280;10172;42.054;24.546;2023-03-31T08:57:32;97874.41;;;17.86;43.97
20023;BME280;10172;42.054;24.546;2023-03-31T09:00:02;97874.88;;;19.16;41.17
20023;BME280;10172;42.054;24.546;2023-03-31T09:06:00;97857.84;;;18.91;42.33
20023;BME280;10172;42.054;24.546;2023-03-31T09:08:32;97858.41;;;17.85;44.07
20023;BME280;10172;42.054;24.546;2023-03-31T09:11:10;97848.47;;;19.43;42.33
20023;BME280;10172;42.054;24.546;2023-03-31T09:14:20;97848.94;;;19.47;41.13
20023;BME280;10172;42.054;24.546;2023-03-31T09:16:58;97847.44;;;19.52;41.25
20023;BME280;10172;42.054;24.546;2023-03-31T09:19:37;97853.03;;;19.43;41.18
20023;BME280;10172;42.054;24.546;2023-03-31T09:22:12;97846.75;;;19.58;41.41
20023;BME280;10172;42.054;24.546;2023-03-31T09:24:54;97842.41;;;20.59;40.33
20023;BME280;10172;42.054;24.546;2023-03-31T09:27:23;97834.16;;;20.83;39.43
20023;BME280;10172;42.054;24.546;2023-03-31T09:29:55;97817.66;;;19.93;40.60
20023;BME280;10172;42.054;24.546;2023-03-31T09:32:27;97816.91;;;19.60;40.98
20023;BME280;10172;42.054;24.546;2023-03-31T09:34:57;97810.53;;;19.45;42.11
20023;BME280;10172;42.054;24.546;2023-03-31T09:37:27;97806.13;;;20.54;40.31
20023;BME280;10172;42.054;24.546;2023-03-31T09:40:03;97789.72;;;20.33;40.39
20023;BME280;10172;42.054;24.546;2023-03-31T09:42:35;97790.41;;;20.26;38.92
20023;BME280;10172;42.054;24.546;2023-03-31T09:45:03;97787.53;;;20.28;40.21
20023;BME280;10172;42.054;24.546;2023-03-31T09:47:38;97786.00;;;19.87;39.75
20023;BME280;10172;42.054;24.546;2023-03-31T09:50:07;97784.66;;;20.83;39.69
20023;BME280;10172;42.054;24.546;2023-03-31T09:52:36;97789.22;;;20.60;38.97
20023;BME280;10172;42.054;24.546;2023-03-31T09:55:24;97773.06;;;20.52;38.99
20023;BME280;10172;42.054;24.546;2023-03-31T09:57:50;97760.53;;;19.81;41.38
20023;BME280;10172;42.054;24.546;2023-03-31T10:00:19;97760.97;;;19.30;41.97
20023;BME280;10172;42.054;24.546;2023-03-31T10:02:56;97765.16;;;21.18;39.76
20023;BME280;10172;42.054;24.546;2023-03-31T10:05:31;97755.09;;;21.41;38.70
20023;BME280;10172;42.054;24.546;2023-03-31T10:10:51;97750.75;;;20.27;41.02
20023;BME280;10172;42.054;24.546;2023-03-31T10:13:34;97747.81;;;19.43;41.82
20023;BME280;10172;42.054;24.546;2023-03-31T10:16:08;97748.84;;;19.09;43.24
20023;BME280;10172;42.054;24.546;2023-03-31T10:18:42;97763.31;;;18.76;44.01
20023;BME280;10172;42.054;24.546;2023-03-31T10:21:23;97751.25;;;20.14;42.35
20023;BME280;10172;42.054;24.546;2023-03-31T10:23:50;97745.34;;;20.50;41.99
20023;BME280;10172;42.054;24.546;2023-03-31T10:26:19;97756.47;;;20.55;41.16
20023;BME280;10172;42.054;24.546;2023-03-31T10:28:47;97744.50;;;20.26;40.79
20023;BME280;10172;42.054;24.546;2023-03-31T10:31:18;97738.88;;;21.04;40.24
20023;BME280;10172;42.054;24.546;2023-03-31T10:33:47;97736.63;;;20.70;40.16
20023;BME280;10172;42.054;24.546;2023-03-31T10:36:27;97739.84;;;20.66;40.27
20023;BME280;10172;42.054;24.546;2023-03-31T10:38:54;97742.78;;;21.39;40.12
20023;BME280;10172;42.054;24.546;2023-03-31T10:41:26;97730.66;;;21.35;39.46
20023;BME280;10172;42.054;24.546;2023-03-31T10:43:55;97741.53;;;21.12;40.38
20023;BME280;10172;42.054;24.546;2023-03-31T10:46:39;97743.78;;;21.23;39.44
20023;BME280;10172;42.054;24.546;2023-03-31T10:49:23;97727.41;;;21.39;40.22
20023;BME280;10172;42.054;24.546;2023-03-31T10:51:57;97719.59;;;22.03;38.50
20023;BME280;10172;42.054;24.546;2023-03-31T10:54:24;97720.53;;;21.95;39.07
20023;BME280;10172;42.054;24.546;2023-03-31T10:56:55;97713.03;;;20.79;40.67
20023;BME280;10172;42.054;24.546;2023-03-31T11:05:14;97697.47;;;21.99;39.77
20023;BME280;10172;42.054;24.546;2023-03-31T11:10:41;97687.50;;;21.71;40.01
20023;BME280;10172;42.054;24.546;2023-03-31T11:16:02;97668.53;;;22.57;38.81
20023;BME280;10172;42.054;24.546;2023-03-31T11:21:38;97664.88;;;21.93;39.79
20023;BME280;10172;42.054;24.546;2023-03-31T11:27:19;97654.34;;;23.04;36.83
20023;BME280;10172;42.054;24.546;2023-03-31T11:29:59;97645.22;;;22.62;38.37
20023;BME280;10172;42.054;24.546;2023-03-31T11:35:44;97639.03;;;22.69;37.52
20023;BME280;10172;42.054;24.546;2023-03-31T11:38:46;97626.53;;;23.23;37.42
20023;BME280;10172;42.054;24.546;2023-03-31T11:41:19;97628.06;;;22.34;38.21
20023;BME280;10172;42.054;24.546;2023-03-31T11:43:51;97610.47;;;22.09;39.54
20023;BME280;10172;42.054;24.546;2023-03-31T11:46:22;97605.22;;;22.65;38.34
20023;BME280;10172;42.054;24.546;2023-03-31T11:49:02;97600.91;;;23.66;38.43
20023;BME280;10172;42.054;24.546;2023-03-31T11:53:59;97590.25;;;24.32;33.91
20023;BME280;10172;42.054;24.546;2023-03-31T11:56:34;97599.03;;;22.71;37.06
20023;BME280;10172;42.054;24.546;2023-03-31T11:59:01;97590.28;;;21.25;39.21
20023;BME280;10172;42.054;24.546;2023-03-31T12:06:51;97590.47;;;22.95;36.41
20023;BME280;10172;42.054;24.546;2023-03-31T12:09:42;97585.44;;;21.21;38.32
20023;BME280;10172;42.054;24.546;2023-03-31T12:12:17;97592.19;;;21.61;37.14
20023;BME280;10172;42.054;24.546;2023-03-31T12:14:52;97578.50;;;21.48;38.06
20023;BME280;10172;42.054;24.546;2023-03-31T12:17:26;97570.56;;;22.88;36.03
20023;BME280;10172;42.054;24.546;2023-03-31T12:20:02;97570.09;;;22.56;35.51
20023;BME280;10172;42.054;24.546;2023-03-31T12:22:42;97568.50;;;22.90;35.28
20023;BME280;10172;42.054;24.546;2023-03-31T12:25:13;97575.19;;;23.28;34.02
20023;BME280;10172;42.054;24.546;2023-03-31T12:27:41;97578.16;;;21.72;35.82
20023;BME280;10172;42.054;24.546;2023-03-31T12:33:36;97577.75;;;21.39;36.75
20023;BME280;10172;42.054;24.546;2023-03-31T12:39:11;97578.31;;;21.85;38.01
20023;BME280;10172;42.054;24.546;2023-03-31T12:41:56;97576.69;;;22.26;36.61
20023;BME280;10172;42.054;24.546;2023-03-31T12:44:43;97576.28;;;21.36;37.70
20023;BME280;10172;42.054;24.546;2023-03-31T12:52:39;97572.53;;;22.02;36.00
20023;BME280;10172;42.054;24.546;2023-03-31T12:55:46;97571.34;;;21.90;36.44
20023;BME280;10172;42.054;24.546;2023-03-31T13:03:39;97538.78;;;22.05;35.12
20023;BME280;10172;42.054;24.546;2023-03-31T13:06:09;97537.69;;;21.13;37.41
20023;BME280;10172;42.054;24.546;2023-03-31T13:11:38;97529.09;;;21.60;36.48
20023;BME280;10172;42.054;24.546;2023-03-31T13:14:22;97528.41;;;22.09;35.40
20023;BME280;10172;42.054;24.546;2023-03-31T13:16:51;97526.94;;;21.05;37.24
20023;BME280;10172;42.054;24.546;2023-03-31T13:19:40;97526.78;;;21.21;37.05
20023;BME280;10172;42.054;24.546;2023-03-31T13:22:06;97529.34;;;21.80;36.33
20023;BME280;10172;42.054;24.546;2023-03-31T13:24:33;97517.59;;;22.36;36.13
20023;BME280;10172;42.054;24.546;2023-03-31T13:27:33;97512.84;;;20.95;37.47
20023;BME280;10172;42.054;24.546;2023-03-31T13:29:59;97523.19;;;20.48;37.98
20023;BME280;10172;42.054;24.546;2023-03-31T13:32:25;97510.66;;;20.09;39.23
20023;BME280;10172;42.054;24.546;2023-03-31T13:35:04;97516.44;;;20.29;39.26
20023;BME280;10172;42.054;24.546;2023-03-31T13:48:23;97494.84;;;20.29;39.68
20023;BME280;10172;42.054;24.546;2023-03-31T13:51:34;97497.00;;;20.11;39.56
20023;BME280;10172;42.054;24.546;2023-03-31T13:59:18;97482.59;;;20.18;40.77
20023;BME280;10172;42.054;24.546;2023-03-31T14:01:55;97471.09;;;20.24;40.08
20023;BME280;10172;42.054;24.546;2023-03-31T14:04:58;97469.66;;;20.14;40.39
20023;BME280;10172;42.054;24.546;2023-03-31T14:07:31;97480.09;;;19.94;39.78
20023;BME280;10172;42.054;24.546;2023-03-31T14:09:58;97463.75;;;20.10;40.16
20023;BME280;10172;42.054;24.546;2023-03-31T14:12:35;97457.88;;;20.30;40.04
20023;BME280;10172;42.054;24.546;2023-03-31T14:15:03;97461.22;;;20.90;38.55
20023;BME280;10172;42.054;24.546;2023-03-31T14:17:32;97464.47;;;21.29;37.32
20023;BME280;10172;42.054;24.546;2023-03-31T14:28:35;97447.50;;;21.99;34.59
20023;BME280;10172;42.054;24.546;2023-03-31T14:38:46;97438.44;;;20.49;36.71
20023;BME280;10172;42.054;24.546;2023-03-31T14:41:17;97434.59;;;20.58;36.56
20023;BME280;10172;42.054;24.546;2023-03-31T14:43:54;97440.09;;;20.64;37.26
20023;BME280;10172;42.054;24.546;2023-03-31T14:46:21;97436.47;;;20.43;37.11
20023;BME280;10172;42.054;24.546;2023-03-31T14:48:48;97434.63;;;20.20;37.92
20023;BME280;10172;42.054;24.546;2023-03-31T14:51:28;97429.56;;;20.55;37.12
20023;BME280;10172;42.054;24.546;2023-03-31T14:53:59;97440.66;;;20.45;37.20
20023;BME280;10172;42.054;24.546;2023-03-31T14:56:30;97442.31;;;21.40;36.19
20023;BME280;10172;42.054;24.546;2023-03-31T14:58:59;97429.63;;;21.41;35.51
20023;BME280;10172;42.054;24.546;2023-03-31T15:01:34;97432.41;;;21.69;35.06
20023;BME280;10172;42.054;24.546;2023-03-31T15:04:12;97429.88;;;20.96;35.59
20023;BME280;10172;42.054;24.546;2023-03-31T15:06:40;97425.84;;;21.06;35.66
20023;BME280;10172;42.054;24.546;2023-03-31T15:09:07;97424.56;;;21.95;34.61
20023;BME280;10172;42.054;24.546;2023-03-31T15:11:35;97424.31;;;22.18;34.52
20023;BME280;10172;42.054;24.546;2023-03-31T15:14:01;97429.31;;;21.93;33.91
20023;BME280;10172;42.054;24.546;2023-03-31T15:16:43;97438.38;;;20.93;35.36
20023;BME280;10172;42.054;24.546;2023-03-31T15:19:20;97430.91;;;21.09;35.16
20023;BME280;10172;42.054;24.546;2023-03-31T15:22:16;97425.34;;;21.11;34.99
20023;BME280;10172;42.054;24.546;2023-03-31T15:24:45;97422.00;;;21.87;34.40